Kilic 1 — TCUE8 — position and weather

sailwx.info

Track history (hours):
 
Tides and Currents Weather Stations Pressure Air Temp Water Temp Dewpoint Dewpoint Depression Visibility Wind Speed Wind Dir Waves Ship Positions

Kilic 1

Last reported at 2018-Jul-06 04:05 UTC. Time now 2018-Jul-20 12:29 UTC.
Position N 35°48' E 010°59'.
Warning: this ship's position is 14 days out of date.

Length 79 m; draft 4.6 m.

Type: Cargo ship. MMSI: 271043084.

Date/timePositionNaut miles runAvg speedWind from/ knotsBaromVisibWave heightAir tempDewpointWater temp
2018-Jul-06 04:05N 35°48' E 010°59'0 0.0
2018-Jul-06 04:00N 35°48' E 010°59'0 0.0
2018-Jul-06 03:30N 35°48' E 010°59'0 0.0
2018-Jul-06 03:00N 35°48' E 010°59'0 0.0
2018-Jul-06 02:29N 35°48' E 010°59'0 0.0
2018-Jul-06 02:00N 35°48' E 010°59'0 0.1
2018-Jul-06 01:30N 35°48' E 010°59'0 0.0
2018-Jul-06 01:00N 35°48' E 010°59'0 0.0
2018-Jul-06 00:30N 35°48' E 010°59'0 0.0
2018-Jul-05 23:51N 35°48' E 010°59'0 0.0
2018-Jul-05 23:30N 35°48' E 010°59'0 0.0
2018-Jul-05 20:49N 35°48' E 010°59'0 0.0
2018-Jul-05 20:30N 35°48' E 010°59'1 0.8
2018-Jul-05 19:12N 35°48' E 010°60'1 7.3
2018-Jul-05 19:00N 35°49' E 011°01'4 7.3
2018-Jul-05 18:30N 35°49' E 011°06'3 6.3
2018-Jul-05 18:00N 35°46' E 011°06'1 2.1
2018-Jul-05 17:29N 35°45' E 011°05'0 0.1
2018-Jul-05 17:00N 35°45' E 011°05'0 0.1
2018-Jul-05 16:30N 35°45' E 011°05'0 0.1
2018-Jul-05 16:00N 35°45' E 011°05'0 0.0
2018-Jul-05 15:29N 35°45' E 011°05'0 0.0
2018-Jul-05 14:52N 35°45' E 011°05'0 0.0
2018-Jul-05 13:20N 35°45' E 011°05'0 0.0
2018-Jul-05 12:14N 35°45' E 011°05'0 0.0
2018-Jul-05 10:50N 35°45' E 011°05'0 0.1
2018-Jul-05 09:30N 35°45' E 011°05'101 5.6
2018-Jul-04 15:36N 35°39' E 013°09'1 7.3
2018-Jul-04 15:30N 35°39' E 013°10'17 7.2
2018-Jul-04 13:10N 35°38' E 013°31'1 7.2
2018-Jul-04 13:01N 35°38' E 013°32'4 7.3
2018-Jul-04 12:30N 35°37' E 013°36'7 7.3
2018-Jul-04 11:35N 35°37' E 013°45'0 7.4
2018-Jul-04 11:31N 35°37' E 013°45'4 7.5
2018-Jul-04 11:00N 35°37' E 013°50'4 7.6
2018-Jul-04 10:28N 35°37' E 013°55'3 7.5
2018-Jul-04 10:00N 35°37' E 013°59'4 7.2
2018-Jul-04 09:31N 35°38' E 014°04'  
Track history (hours):
 
Tides and Currents Weather Stations Pressure Air Temp Water Temp Dewpoint Dewpoint Depression Visibility Wind Speed Wind Dir Waves Ship Positions

Kilic 1

Last reported at 2018-Jul-06 04:05 UTC. Time now 2018-Jul-20 12:29 UTC.
Position N 35°48' E 010°59'.
Warning: this ship's position is 14 days out of date.

Length 79 m; draft 4.6 m.

Type: Cargo ship. MMSI: 271043084.

Date/timePositionNaut miles runAvg speedWind from/ knotsBaromVisibWave heightAir tempDewpointWater temp
2018-Jul-06 04:05N 35°48' E 010°59'0 0.0
2018-Jul-06 04:00N 35°48' E 010°59'0 0.0
2018-Jul-06 03:30N 35°48' E 010°59'0 0.0
2018-Jul-06 03:00N 35°48' E 010°59'0 0.0
2018-Jul-06 02:29N 35°48' E 010°59'0 0.0
2018-Jul-06 02:00N 35°48' E 010°59'0 0.1
2018-Jul-06 01:30N 35°48' E 010°59'0 0.0
2018-Jul-06 01:00N 35°48' E 010°59'0 0.0
2018-Jul-06 00:30N 35°48' E 010°59'0 0.0
2018-Jul-05 23:51N 35°48' E 010°59'0 0.0
2018-Jul-05 23:30N 35°48' E 010°59'0 0.0
2018-Jul-05 20:49N 35°48' E 010°59'0 0.0
2018-Jul-05 20:30N 35°48' E 010°59'1 0.8
2018-Jul-05 19:12N 35°48' E 010°60'1 7.3
2018-Jul-05 19:00N 35°49' E 011°01'4 7.3
2018-Jul-05 18:30N 35°49' E 011°06'3 6.3
2018-Jul-05 18:00N 35°46' E 011°06'1 2.1
2018-Jul-05 17:29N 35°45' E 011°05'0 0.1
2018-Jul-05 17:00N 35°45' E 011°05'0 0.1
2018-Jul-05 16:30N 35°45' E 011°05'0 0.1
2018-Jul-05 16:00N 35°45' E 011°05'0 0.0
2018-Jul-05 15:29N 35°45' E 011°05'0 0.0
2018-Jul-05 14:52N 35°45' E 011°05'0 0.0
2018-Jul-05 13:20N 35°45' E 011°05'0 0.0
2018-Jul-05 12:14N 35°45' E 011°05'0 0.0
2018-Jul-05 10:50N 35°45' E 011°05'0 0.1
2018-Jul-05 09:30N 35°45' E 011°05'101 5.6
2018-Jul-04 15:36N 35°39' E 013°09'1 7.3
2018-Jul-04 15:30N 35°39' E 013°10'17 7.2
2018-Jul-04 13:10N 35°38' E 013°31'1 7.2
2018-Jul-04 13:01N 35°38' E 013°32'4 7.3
2018-Jul-04 12:30N 35°37' E 013°36'7 7.3
2018-Jul-04 11:35N 35°37' E 013°45'0 7.4
2018-Jul-04 11:31N 35°37' E 013°45'4 7.5
2018-Jul-04 11:00N 35°37' E 013°50'4 7.6
2018-Jul-04 10:28N 35°37' E 013°55'3 7.5
2018-Jul-04 10:00N 35°37' E 013°59'4 7.2
2018-Jul-04 09:31N 35°38' E 014°04'  

Dump ship's entire track history